createdAt,value
2016-10-26T00:00:43.434Z,0
2016-10-26T00:01:42.989Z,0
2016-10-26T00:02:43.025Z,0
2016-10-26T00:03:43.039Z,0
2016-10-26T00:04:43.075Z,0
2016-10-26T00:05:43.076Z,0
2016-10-26T00:06:43.088Z,0
2016-10-26T00:07:43.118Z,0
2016-10-26T00:08:43.124Z,0
2016-10-26T00:09:43.141Z,0
2016-10-26T00:10:43.165Z,0
2016-10-26T00:11:43.169Z,0
2016-10-26T00:12:43.182Z,0
2016-10-26T00:13:43.200Z,0
2016-10-26T00:14:43.220Z,0
2016-10-26T00:15:43.225Z,0
2016-10-26T00:16:43.255Z,0
2016-10-26T00:17:43.272Z,0
2016-10-26T00:18:43.288Z,0
2016-10-26T00:19:43.290Z,0
2016-10-26T00:20:43.322Z,0
2016-10-26T00:21:43.347Z,0
2016-10-26T00:22:43.344Z,0
2016-10-26T00:23:43.367Z,0
2016-10-26T00:24:43.384Z,0
2016-10-26T00:25:43.411Z,0
2016-10-26T00:26:43.426Z,0
2016-10-26T00:27:43.431Z,0
2016-10-26T00:28:43.454Z,0
2016-10-26T00:29:43.476Z,0
2016-10-26T00:30:43.466Z,0
2016-10-26T00:31:43.508Z,0
2016-10-26T00:32:43.515Z,0
2016-10-26T00:33:43.521Z,0
2016-10-26T00:34:43.554Z,0
2016-10-26T00:35:43.555Z,0
2016-10-26T00:36:43.584Z,0
2016-10-26T00:37:43.605Z,0
2016-10-26T00:38:43.612Z,0
2016-10-26T00:39:43.631Z,0
2016-10-26T00:40:43.656Z,0
2016-10-26T00:41:43.668Z,0
2016-10-26T00:42:43.666Z,0
2016-10-26T00:43:43.692Z,0
2016-10-26T00:44:43.704Z,0
2016-10-26T00:45:43.726Z,0
2016-10-26T00:46:43.744Z,0
2016-10-26T00:47:43.756Z,0
2016-10-26T00:48:43.773Z,0
2016-10-26T00:49:43.803Z,0
2016-10-26T00:50:43.809Z,0
2016-10-26T00:51:43.832Z,0
2016-10-26T00:52:43.841Z,0
2016-10-26T00:53:43.855Z,0
2016-10-26T00:54:43.916Z,0
2016-10-26T00:55:43.899Z,0
2016-10-26T00:56:43.926Z,0
2016-10-26T00:57:43.928Z,0
2016-10-26T00:58:43.932Z,0
2016-10-26T00:59:43.985Z,0
2016-10-26T01:00:43.981Z,0
2016-10-26T01:01:43.991Z,0
2016-10-26T01:02:44.008Z,0
2016-10-26T01:03:44.027Z,0
2016-10-26T01:04:44.024Z,0
2016-10-26T01:05:44.072Z,0
2016-10-26T01:06:44.059Z,0
2016-10-26T01:07:44.089Z,0
2016-10-26T01:08:44.108Z,0
2016-10-26T01:09:44.120Z,0
2016-10-26T01:10:44.134Z,0
2016-10-26T01:11:44.155Z,0
2016-10-26T01:12:44.178Z,0
2016-10-26T01:13:44.192Z,0
2016-10-26T01:14:44.201Z,0
2016-10-26T01:15:44.219Z,0
2016-10-26T01:16:44.230Z,0
2016-10-26T01:17:44.241Z,0
2016-10-26T01:18:44.266Z,0
2016-10-26T01:19:44.295Z,0
2016-10-26T01:20:44.295Z,0
2016-10-26T01:21:44.324Z,0
2016-10-26T01:22:44.315Z,0
2016-10-26T01:23:44.365Z,0
2016-10-26T01:24:44.362Z,0
2016-10-26T01:25:44.386Z,0
2016-10-26T01:26:44.399Z,0
2016-10-26T01:27:44.419Z,0
2016-10-26T01:28:44.447Z,0
2016-10-26T01:29:44.449Z,0
2016-10-26T01:30:44.449Z,0
2016-10-26T01:31:44.492Z,0
2016-10-26T01:32:44.489Z,0
2016-10-26T01:33:44.511Z,0
2016-10-26T01:34:44.526Z,0
2016-10-26T01:35:44.555Z,0
2016-10-26T01:36:44.552Z,0
2016-10-26T01:37:44.577Z,0
2016-10-26T01:38:44.591Z,0
2016-10-26T01:39:44.600Z,0
2016-10-26T01:40:44.632Z,0
2016-10-26T01:41:44.654Z,0
2016-10-26T01:42:44.655Z,0
2016-10-26T01:43:44.672Z,0
2016-10-26T01:44:44.701Z,0
2016-10-26T01:45:44.705Z,0
2016-10-26T01:46:44.735Z,0
2016-10-26T01:47:44.743Z,0
2016-10-26T01:48:44.760Z,0
2016-10-26T01:49:44.790Z,0
2016-10-26T01:50:44.796Z,0
2016-10-26T01:51:44.808Z,0
2016-10-26T01:52:44.828Z,0
2016-10-26T01:53:44.833Z,0
2016-10-26T01:54:44.867Z,0
2016-10-26T01:55:44.871Z,0
2016-10-26T01:56:44.881Z,0
2016-10-26T01:57:44.909Z,0
2016-10-26T01:58:44.927Z,0
2016-10-26T01:59:44.936Z,0
2016-10-26T02:00:44.951Z,0
2016-10-26T02:01:44.982Z,0
2016-10-26T02:02:44.984Z,0
2016-10-26T02:03:45.004Z,0
2016-10-26T02:04:45.001Z,0
2016-10-26T02:05:45.025Z,0
2016-10-26T02:06:45.064Z,0
2016-10-26T02:07:45.072Z,0
2016-10-26T02:08:45.072Z,0
2016-10-26T02:09:45.107Z,0
2016-10-26T02:10:45.126Z,0
2016-10-26T02:11:45.128Z,0
2016-10-26T02:12:45.158Z,0
2016-10-26T02:13:45.174Z,0
2016-10-26T02:14:45.181Z,0
2016-10-26T02:15:45.213Z,0
2016-10-26T02:16:45.233Z,0
2016-10-26T02:17:45.228Z,0
2016-10-26T02:18:45.251Z,0
2016-10-26T02:19:45.308Z,0
2016-10-26T02:20:45.277Z,0
2016-10-26T02:21:45.299Z,0
2016-10-26T02:22:45.308Z,0
2016-10-26T02:23:45.337Z,0
2016-10-26T02:24:45.346Z,0
2016-10-26T02:25:45.360Z,0
2016-10-26T02:26:45.390Z,0
2016-10-26T02:27:45.401Z,0
2016-10-26T02:28:45.407Z,0
2016-10-26T02:29:45.422Z,0
2016-10-26T02:30:45.446Z,0
2016-10-26T02:31:45.463Z,0
2016-10-26T02:32:45.490Z,0
2016-10-26T02:33:45.493Z,0
2016-10-26T02:34:45.524Z,0
2016-10-26T02:35:45.535Z,0
2016-10-26T02:36:45.555Z,0
2016-10-26T02:37:45.562Z,0
2016-10-26T02:38:45.578Z,0
2016-10-26T02:39:45.602Z,0
2016-10-26T02:40:45.619Z,0
2016-10-26T02:41:45.642Z,0
2016-10-26T02:42:45.646Z,0
2016-10-26T02:43:45.659Z,0
2016-10-26T02:44:45.668Z,0
2016-10-26T02:45:45.704Z,0
2016-10-26T02:46:45.742Z,0
2016-10-26T02:47:45.736Z,0
2016-10-26T02:48:45.745Z,0
2016-10-26T02:49:45.760Z,0
2016-10-26T02:50:45.761Z,0
2016-10-26T02:51:45.787Z,0
2016-10-26T02:52:45.797Z,0
2016-10-26T02:53:45.813Z,0
2016-10-26T02:54:45.830Z,0
2016-10-26T02:55:45.858Z,0
2016-10-26T02:56:45.868Z,0
2016-10-26T02:57:45.890Z,0
2016-10-26T02:58:45.919Z,0
2016-10-26T02:59:45.917Z,0
2016-10-26T03:00:45.941Z,0
2016-10-26T03:01:45.950Z,0
2016-10-26T03:02:45.978Z,0
2016-10-26T03:03:45.981Z,0
2016-10-26T03:04:45.996Z,0
2016-10-26T03:05:46.023Z,0
2016-10-26T03:06:46.036Z,0
2016-10-26T03:07:46.053Z,0
2016-10-26T03:08:46.055Z,0
2016-10-26T03:09:46.090Z,0
2016-10-26T03:10:46.097Z,0
2016-10-26T03:11:46.123Z,0
2016-10-26T03:12:46.124Z,0
2016-10-26T03:13:46.152Z,0
2016-10-26T03:14:46.192Z,0
2016-10-26T03:15:46.190Z,0
2016-10-26T03:16:46.190Z,0
2016-10-26T03:17:46.211Z,0
2016-10-26T03:18:46.236Z,0
2016-10-26T03:19:46.236Z,0
2016-10-26T03:20:46.268Z,0
2016-10-26T03:21:46.270Z,0
2016-10-26T03:22:46.301Z,0
2016-10-26T03:23:46.309Z,0
2016-10-26T03:24:46.333Z,0
2016-10-26T03:25:46.358Z,0
2016-10-26T03:26:46.368Z,0
2016-10-26T03:27:46.379Z,0
2016-10-26T03:28:46.384Z,0
2016-10-26T03:29:46.407Z,0
2016-10-26T03:30:46.416Z,0
2016-10-26T03:31:46.450Z,0
2016-10-26T03:32:46.457Z,0
2016-10-26T03:33:46.467Z,0
2016-10-26T03:34:46.505Z,0
2016-10-26T03:35:46.497Z,0
2016-10-26T03:36:46.514Z,0
2016-10-26T03:37:46.549Z,0
2016-10-26T03:38:46.563Z,0
2016-10-26T03:39:46.561Z,0
2016-10-26T03:40:46.593Z,0
2016-10-26T03:41:46.605Z,0
2016-10-26T03:42:46.637Z,0
2016-10-26T03:43:46.649Z,0
2016-10-26T03:44:46.655Z,0
2016-10-26T03:45:46.665Z,0
2016-10-26T03:46:46.685Z,0
2016-10-26T03:47:46.690Z,0
2016-10-26T03:48:46.727Z,0
2016-10-26T03:49:46.745Z,0
2016-10-26T03:50:46.757Z,0
2016-10-26T03:51:46.779Z,0
2016-10-26T03:52:46.781Z,0
2016-10-26T03:53:46.808Z,0
2016-10-26T03:54:46.818Z,0
2016-10-26T03:55:46.849Z,0
2016-10-26T03:56:46.858Z,0
2016-10-26T03:57:46.866Z,0
2016-10-26T03:58:46.894Z,0
2016-10-26T03:59:46.911Z,0
2016-10-26T04:01:46.911Z,0
2016-10-26T04:02:46.936Z,0
2016-10-26T04:03:47.192Z,0
2016-10-26T04:04:46.969Z,0
2016-10-26T04:05:46.968Z,0
2016-10-26T04:06:46.979Z,0
2016-10-26T04:07:47.012Z,0
2016-10-26T04:08:47.046Z,0
2016-10-26T04:09:47.040Z,0
2016-10-26T04:10:47.063Z,0
2016-10-26T04:11:47.072Z,0
2016-10-26T04:12:47.077Z,0
2016-10-26T04:13:47.105Z,0
2016-10-26T04:14:47.124Z,0
2016-10-26T04:15:47.141Z,0
2016-10-26T04:16:47.157Z,0
2016-10-26T04:17:47.178Z,0
2016-10-26T04:18:47.196Z,0
2016-10-26T04:19:47.203Z,0
2016-10-26T04:20:47.229Z,0
2016-10-26T04:21:47.242Z,0
2016-10-26T04:22:47.251Z,0
2016-10-26T04:23:47.271Z,0
2016-10-26T04:24:47.286Z,0
2016-10-26T04:25:47.306Z,0
2016-10-26T04:26:47.315Z,0
2016-10-26T04:27:47.340Z,0
2016-10-26T04:28:47.353Z,0
2016-10-26T04:29:47.373Z,0
2016-10-26T04:30:47.379Z,0
2016-10-26T04:31:47.391Z,0
2016-10-26T04:32:47.426Z,0
2016-10-26T04:33:47.437Z,0
2016-10-26T04:34:47.460Z,0
2016-10-26T04:35:47.464Z,0
2016-10-26T04:36:47.490Z,0
2016-10-26T04:37:47.516Z,0
2016-10-26T04:38:47.503Z,0
2016-10-26T04:39:47.545Z,0
2016-10-26T04:40:47.559Z,0
2016-10-26T04:41:47.558Z,0
2016-10-26T04:42:47.593Z,0
2016-10-26T04:43:47.591Z,0
2016-10-26T04:44:47.612Z,0
2016-10-26T04:45:47.634Z,0
2016-10-26T04:46:47.667Z,0
2016-10-26T04:47:47.665Z,0
2016-10-26T04:48:47.694Z,0
2016-10-26T04:49:47.709Z,0
2016-10-26T04:50:47.724Z,0
2016-10-26T04:51:47.733Z,0
2016-10-26T04:52:47.758Z,0
2016-10-26T04:53:47.769Z,0
2016-10-26T04:54:47.776Z,0
2016-10-26T04:55:47.797Z,0
2016-10-26T04:56:47.816Z,0
2016-10-26T04:57:47.822Z,0
2016-10-26T04:58:47.832Z,0
2016-10-26T04:59:47.868Z,0
2016-10-26T05:00:47.883Z,0
2016-10-26T05:01:47.912Z,0
2016-10-26T05:02:47.905Z,0
2016-10-26T05:03:47.931Z,0
2016-10-26T05:04:47.942Z,0
2016-10-26T05:05:47.956Z,0
2016-10-26T05:06:47.982Z,0
2016-10-26T05:07:47.978Z,0
2016-10-26T05:08:48.010Z,0
2016-10-26T05:09:48.017Z,0
2016-10-26T05:10:48.049Z,0
2016-10-26T05:11:48.066Z,0
2016-10-26T05:12:48.070Z,0
2016-10-26T05:13:48.098Z,0
2016-10-26T05:14:48.096Z,0
2016-10-26T05:15:48.140Z,0
2016-10-26T05:16:48.137Z,0
2016-10-26T05:17:48.154Z,0
2016-10-26T05:18:48.168Z,0
2016-10-26T05:19:48.196Z,0
2016-10-26T05:20:48.200Z,0
2016-10-26T05:21:48.215Z,0
2016-10-26T05:22:48.220Z,0
2016-10-26T05:23:48.254Z,0
2016-10-26T05:24:48.286Z,0
2016-10-26T05:25:48.289Z,0
2016-10-26T05:26:48.315Z,0
2016-10-26T05:27:48.311Z,0
2016-10-26T05:28:48.379Z,0
2016-10-26T05:29:48.365Z,0
2016-10-26T05:30:48.368Z,0
2016-10-26T05:31:48.385Z,0
2016-10-26T05:32:48.443Z,0
2016-10-26T05:33:48.415Z,0
2016-10-26T05:34:48.435Z,0
2016-10-26T05:35:48.466Z,0
2016-10-26T05:36:48.466Z,0
2016-10-26T05:37:48.490Z,0
2016-10-26T05:38:48.506Z,0
2016-10-26T05:39:48.551Z,0
2016-10-26T05:40:48.539Z,0
2016-10-26T05:41:48.563Z,0
2016-10-26T05:42:48.564Z,0
2016-10-26T05:43:48.578Z,4
2016-10-26T05:44:48.599Z,4
2016-10-26T05:45:48.635Z,0
2016-10-26T05:46:48.632Z,0
2016-10-26T05:47:48.620Z,4
2016-10-26T05:48:48.655Z,4
2016-10-26T05:49:48.674Z,4
2016-10-26T05:50:48.686Z,4
2016-10-26T05:51:48.714Z,4
2016-10-26T05:52:48.729Z,8
2016-10-26T05:53:48.748Z,8
2016-10-26T05:54:48.759Z,8
2016-10-26T05:55:48.781Z,8
2016-10-26T05:56:48.793Z,8
2016-10-26T05:57:48.802Z,12
2016-10-26T05:58:48.877Z,12
2016-10-26T05:59:48.853Z,16
2016-10-26T06:00:48.841Z,20
2016-10-26T06:01:48.852Z,20
2016-10-26T06:02:48.887Z,24
2016-10-26T06:03:48.890Z,24
2016-10-26T06:04:48.921Z,28
2016-10-26T06:05:48.927Z,32
2016-10-26T06:06:48.955Z,36
2016-10-26T06:07:48.958Z,40
2016-10-26T06:08:48.977Z,40
2016-10-26T06:09:48.996Z,44
2016-10-26T06:10:49.015Z,48
2016-10-26T06:11:49.037Z,52
2016-10-26T06:12:49.058Z,56
2016-10-26T06:13:49.081Z,64
2016-10-26T06:14:49.087Z,72
2016-10-26T06:15:49.094Z,80
2016-10-26T06:16:49.111Z,88
2016-10-26T06:17:49.143Z,100
2016-10-26T06:18:49.141Z,108
2016-10-26T06:19:49.169Z,120
2016-10-26T06:20:49.182Z,128
2016-10-26T06:21:49.210Z,144
2016-10-26T06:22:49.267Z,156
2016-10-26T06:23:49.232Z,168
2016-10-26T06:24:49.238Z,168
2016-10-26T06:25:49.267Z,176
2016-10-26T06:26:49.281Z,188
2016-10-26T06:27:49.306Z,192
2016-10-26T06:28:49.312Z,204
2016-10-26T06:29:49.320Z,212
2016-10-26T06:30:49.351Z,220
2016-10-26T06:31:49.367Z,236
2016-10-26T06:32:49.361Z,256
2016-10-26T06:33:49.400Z,264
2016-10-26T06:34:49.397Z,260
2016-10-26T06:35:49.424Z,264
2016-10-26T06:36:49.442Z,276
2016-10-26T06:37:49.462Z,288
2016-10-26T06:38:49.482Z,300
2016-10-26T06:39:49.506Z,308
2016-10-26T06:40:49.497Z,316
2016-10-26T06:41:49.506Z,320
2016-10-26T06:42:49.541Z,332
2016-10-26T06:43:49.557Z,336
2016-10-26T06:44:49.559Z,344
2016-10-26T06:45:49.597Z,356
2016-10-26T06:46:49.592Z,360
2016-10-26T06:47:49.621Z,368
2016-10-26T06:48:49.656Z,380
2016-10-26T06:49:49.648Z,400
2016-10-26T06:50:49.663Z,428
2016-10-26T06:51:49.692Z,456
2016-10-26T06:52:49.717Z,480
2016-10-26T06:53:49.727Z,508
2016-10-26T06:54:49.748Z,524
2016-10-26T06:55:49.766Z,532
2016-10-26T06:56:49.771Z,540
2016-10-26T06:57:49.776Z,556
2016-10-26T06:58:49.780Z,580
2016-10-26T06:59:49.816Z,612
2016-10-26T07:00:49.840Z,648
2016-10-26T07:01:49.844Z,684
2016-10-26T07:02:49.860Z,720
2016-10-26T07:03:49.870Z,752
2016-10-26T07:04:49.907Z,772
2016-10-26T07:05:49.932Z,796
2016-10-26T07:06:49.931Z,828
2016-10-26T07:07:49.950Z,864
2016-10-26T07:08:49.966Z,888
2016-10-26T07:09:49.980Z,884
2016-10-26T07:10:50.005Z,844
2016-10-26T07:11:50.010Z,812
2016-10-26T07:12:50.026Z,812
2016-10-26T07:13:50.038Z,820
2016-10-26T07:14:50.061Z,824
2016-10-26T07:15:50.080Z,816
2016-10-26T07:16:50.086Z,788
2016-10-26T07:17:50.109Z,756
2016-10-26T07:18:50.132Z,752
2016-10-26T07:19:50.148Z,772
2016-10-26T07:20:50.259Z,792
2016-10-26T07:21:50.179Z,800
2016-10-26T07:22:50.191Z,812
2016-10-26T07:23:50.206Z,836
2016-10-26T07:24:50.222Z,840
2016-10-26T07:25:50.257Z,808
2016-10-26T07:26:50.256Z,808
2016-10-26T07:27:50.271Z,832
2016-10-26T07:28:50.289Z,840
2016-10-26T07:29:50.323Z,828
2016-10-26T07:30:50.170Z,816
2016-10-26T07:31:50.331Z,820
2016-10-26T07:32:50.367Z,840
2016-10-26T07:33:50.359Z,880
2016-10-26T07:34:50.392Z,904
2016-10-26T07:35:50.406Z,928
2016-10-26T07:36:50.431Z,944
2016-10-26T07:37:50.436Z,960
2016-10-26T07:38:50.447Z,996
2016-10-26T07:39:50.467Z,1052
2016-10-26T07:40:50.490Z,1136
2016-10-26T07:41:50.505Z,1236
2016-10-26T07:42:50.520Z,1296
2016-10-26T07:43:50.569Z,1236
2016-10-26T07:44:50.550Z,1208
2016-10-26T07:45:50.575Z,1268
2016-10-26T07:46:50.594Z,1404
2016-10-26T07:47:50.591Z,1600
2016-10-26T07:48:50.647Z,1788
2016-10-26T07:49:50.644Z,1972
2016-10-26T07:50:50.651Z,2104
2016-10-26T07:51:50.665Z,2156
2016-10-26T07:52:50.689Z,2128
2016-10-26T07:53:50.707Z,2016
2016-10-26T07:54:50.722Z,1896
2016-10-26T07:55:50.732Z,1892
2016-10-26T07:56:50.755Z,1888
2016-10-26T07:57:50.773Z,1980
2016-10-26T07:58:51.120Z,2084
2016-10-26T07:59:50.828Z,2132
2016-10-26T08:00:50.813Z,2164
2016-10-26T08:01:50.841Z,2188
2016-10-26T08:02:50.860Z,2176
2016-10-26T08:03:50.862Z,2164
2016-10-26T08:04:50.882Z,2140
2016-10-26T08:05:50.913Z,2140
2016-10-26T08:06:50.926Z,2156
2016-10-26T08:07:50.935Z,2200
2016-10-26T08:08:50.955Z,2236
2016-10-26T08:09:50.965Z,2264
2016-10-26T08:10:50.980Z,2260
2016-10-26T08:11:51.007Z,2244
2016-10-26T08:12:51.018Z,2268
2016-10-26T08:13:51.077Z,2332
2016-10-26T08:14:51.063Z,2404
2016-10-26T08:15:51.080Z,2464
2016-10-26T08:16:51.136Z,2512
2016-10-26T08:17:51.096Z,2624
2016-10-26T08:18:51.465Z,2732
2016-10-26T08:19:51.150Z,2816
2016-10-26T08:20:51.156Z,2860
2016-10-26T08:21:51.180Z,2844
2016-10-26T08:22:51.179Z,2780
2016-10-26T08:23:51.223Z,2712
2016-10-26T08:24:51.222Z,2700
2016-10-26T08:25:51.241Z,2692
2016-10-26T08:26:51.268Z,2680
2016-10-26T08:27:51.282Z,2644
2016-10-26T08:28:51.289Z,2552
2016-10-26T08:29:51.319Z,2432
2016-10-26T08:30:51.386Z,2360
2016-10-26T08:31:51.342Z,2324
2016-10-26T08:32:51.391Z,2308
2016-10-26T08:33:51.372Z,2300
2016-10-26T08:34:51.394Z,2340
2016-10-26T08:35:51.418Z,2416
2016-10-26T08:36:51.441Z,2512
2016-10-26T08:37:51.445Z,2608
2016-10-26T08:38:51.457Z,2684
2016-10-26T08:39:51.477Z,2720
2016-10-26T08:40:51.487Z,2704
2016-10-26T08:41:51.523Z,2684
2016-10-26T08:42:51.536Z,2648
2016-10-26T08:43:51.560Z,2640
2016-10-26T08:44:51.570Z,2700
2016-10-26T08:45:51.587Z,2788
2016-10-26T08:46:51.604Z,2872
2016-10-26T08:47:51.632Z,2928
2016-10-26T08:48:51.650Z,2928
2016-10-26T08:49:51.657Z,2940
2016-10-26T08:50:51.679Z,2972
2016-10-26T08:51:51.702Z,3036
2016-10-26T08:52:51.688Z,3136
2016-10-26T08:53:51.728Z,3240
2016-10-26T08:54:51.755Z,3348
2016-10-26T08:55:51.758Z,3432
2016-10-26T08:56:51.776Z,3504
2016-10-26T08:57:51.793Z,3564
2016-10-26T08:58:51.808Z,3624
2016-10-26T08:59:51.828Z,3656
2016-10-26T09:00:51.835Z,3640
2016-10-26T09:01:51.857Z,3584
2016-10-26T09:02:51.881Z,3512
2016-10-26T09:03:51.917Z,3460
2016-10-26T09:04:51.901Z,3472
2016-10-26T09:05:51.940Z,3548
2016-10-26T09:06:51.966Z,3636
2016-10-26T09:07:51.982Z,3712
2016-10-26T09:08:51.996Z,3740
2016-10-26T09:09:51.998Z,3752
2016-10-26T09:10:52.025Z,3752
2016-10-26T09:11:52.047Z,3736
2016-10-26T09:12:52.050Z,3712
2016-10-26T09:13:52.082Z,3640
2016-10-26T09:14:52.089Z,3604
2016-10-26T09:15:52.120Z,3616
2016-10-26T09:16:52.131Z,3672
2016-10-26T09:17:52.140Z,3708
2016-10-26T09:18:52.161Z,3760
2016-10-26T09:19:52.190Z,3796
2016-10-26T09:20:52.183Z,3816
2016-10-26T09:21:52.210Z,3824
2016-10-26T09:22:52.216Z,3848
2016-10-26T09:23:52.266Z,3876
2016-10-26T09:24:52.272Z,3916
2016-10-26T09:25:52.269Z,3972
2016-10-26T09:26:52.326Z,4036
2016-10-26T09:27:52.335Z,4112
2016-10-26T09:28:52.342Z,4172
2016-10-26T09:29:52.357Z,4208
2016-10-26T09:30:52.360Z,4228
2016-10-26T09:31:52.386Z,4252
2016-10-26T09:32:52.415Z,4276
2016-10-26T09:33:52.423Z,4316
2016-10-26T09:34:52.427Z,4340
2016-10-26T09:35:52.455Z,4312
2016-10-26T09:36:52.484Z,4240
2016-10-26T09:37:52.480Z,4156
2016-10-26T09:38:52.569Z,4116
2016-10-26T09:39:52.534Z,4160
2016-10-26T09:40:52.537Z,4260
2016-10-26T09:41:52.554Z,4400
2016-10-26T09:42:52.586Z,4532
2016-10-26T09:43:52.596Z,4644
2016-10-26T09:44:52.631Z,4740
2016-10-26T09:45:52.639Z,4744
2016-10-26T09:46:52.661Z,4684
2016-10-26T09:47:52.684Z,4656
2016-10-26T09:48:52.699Z,4652
2016-10-26T09:49:52.702Z,4624
2016-10-26T09:50:52.733Z,4584
2016-10-26T09:51:52.754Z,4584
2016-10-26T09:52:52.754Z,4624
2016-10-26T09:53:52.770Z,4712
2016-10-26T09:54:52.792Z,4788
2016-10-26T09:55:52.804Z,4872
2016-10-26T09:56:52.838Z,4988
2016-10-26T09:57:52.856Z,5076
2016-10-26T09:58:52.868Z,5112
2016-10-26T09:59:52.889Z,5152
2016-10-26T10:00:52.910Z,5192
2016-10-26T10:01:52.926Z,5224
2016-10-26T10:02:52.936Z,5260
2016-10-26T10:03:52.962Z,5304
2016-10-26T10:04:52.988Z,5368
2016-10-26T10:05:52.986Z,5424
2016-10-26T10:06:53.006Z,5424
2016-10-26T10:07:53.019Z,5364
2016-10-26T10:08:53.048Z,5244
2016-10-26T10:09:53.063Z,5112
2016-10-26T10:10:53.079Z,4992
2016-10-26T10:11:53.114Z,4884
2016-10-26T10:12:53.127Z,4756
2016-10-26T10:13:53.172Z,4668
2016-10-26T10:14:53.154Z,4616
2016-10-26T10:15:53.181Z,4624
2016-10-26T10:16:53.536Z,4740
2016-10-26T10:17:53.225Z,4856
2016-10-26T10:18:53.237Z,4944
2016-10-26T10:19:53.265Z,5060
2016-10-26T10:20:53.258Z,5192
2016-10-26T10:21:53.296Z,5312
2016-10-26T10:22:53.301Z,5352
2016-10-26T10:23:53.319Z,5348
2016-10-26T10:24:53.340Z,5332
2016-10-26T10:25:53.346Z,5392
2016-10-26T10:26:53.388Z,5556
2016-10-26T10:27:53.386Z,5812
2016-10-26T10:28:53.403Z,6060
2016-10-26T10:29:53.433Z,6244
2016-10-26T10:30:53.442Z,6336
2016-10-26T10:31:53.473Z,6336
2016-10-26T10:32:53.484Z,6272
2016-10-26T10:33:53.500Z,6048
2016-10-26T10:34:53.518Z,5700
2016-10-26T10:35:53.538Z,5276
2016-10-26T10:36:53.565Z,4840
2016-10-26T10:37:53.566Z,4476
2016-10-26T10:38:53.591Z,4152
2016-10-26T10:39:53.613Z,3868
2016-10-26T10:40:53.618Z,3696
2016-10-26T10:41:53.642Z,3612
2016-10-26T10:42:53.656Z,3484
2016-10-26T10:43:53.698Z,3384
2016-10-26T10:44:53.710Z,3352
2016-10-26T10:45:53.761Z,3372
2016-10-26T10:46:53.772Z,3372
2016-10-26T10:47:53.779Z,3304
2016-10-26T10:48:53.766Z,3232
2016-10-26T10:49:53.785Z,3216
2016-10-26T10:50:53.791Z,3260
2016-10-26T10:51:53.813Z,3252
2016-10-26T10:52:53.840Z,3296
2016-10-26T10:53:53.866Z,3372
2016-10-26T10:54:53.890Z,3476
2016-10-26T10:55:53.921Z,3584
2016-10-26T10:56:53.894Z,3708
2016-10-26T10:57:53.926Z,3796
2016-10-26T10:58:53.926Z,3768
2016-10-26T10:59:53.975Z,3640
2016-10-26T11:00:53.972Z,3508
2016-10-26T11:01:54.000Z,3460
2016-10-26T11:02:54.033Z,3504
2016-10-26T11:03:54.035Z,3552
2016-10-26T11:04:54.051Z,3556
2016-10-26T11:05:54.072Z,3512
2016-10-26T11:06:54.089Z,3404
2016-10-26T11:07:54.100Z,3292
2016-10-26T11:08:54.121Z,3212
2016-10-26T11:09:54.171Z,3168
2016-10-26T11:10:54.495Z,3164
2016-10-26T11:11:54.186Z,3200
2016-10-26T11:12:54.187Z,3296
2016-10-26T11:13:54.225Z,3464
2016-10-26T11:14:54.244Z,3660
2016-10-26T11:15:54.239Z,3864
2016-10-26T11:16:54.280Z,4080
2016-10-26T11:17:54.275Z,4296
2016-10-26T11:18:54.330Z,4548
2016-10-26T11:19:54.333Z,4804
2016-10-26T11:20:54.670Z,5108
2016-10-26T11:21:54.363Z,5416
2016-10-26T11:22:54.381Z,5560
2016-10-26T11:23:54.404Z,5636
2016-10-26T11:24:54.432Z,5732
2016-10-26T11:25:54.427Z,5788
2016-10-26T11:26:54.787Z,5752
2016-10-26T11:27:54.482Z,5556
2016-10-26T11:28:54.489Z,5484
2016-10-26T11:29:54.511Z,5624
2016-10-26T11:30:54.544Z,5728
2016-10-26T11:31:54.551Z,6200
2016-10-26T11:32:54.569Z,7184
2016-10-26T11:33:54.574Z,7528
2016-10-26T11:34:54.911Z,7984
2016-10-26T11:35:54.620Z,7752
2016-10-26T11:36:54.652Z,7356
2016-10-26T11:37:54.706Z,8072
2016-10-26T11:38:54.661Z,8012
2016-10-26T11:39:54.712Z,7904
2016-10-26T11:40:54.716Z,7532
2016-10-26T11:41:54.766Z,6980
2016-10-26T11:42:54.751Z,7020
2016-10-26T11:43:55.046Z,6960
2016-10-26T11:44:54.803Z,6780
2016-10-26T11:45:54.794Z,6736
2016-10-26T11:46:54.825Z,6908
2016-10-26T11:47:54.824Z,7220
2016-10-26T11:48:54.855Z,7156
2016-10-26T11:49:54.872Z,7208
2016-10-26T11:50:54.891Z,7196
2016-10-26T11:51:54.917Z,6428
2016-10-26T11:52:54.944Z,6744
2016-10-26T11:53:54.942Z,7152
2016-10-26T11:54:54.977Z,7184
2016-10-26T11:55:54.999Z,7304
2016-10-26T11:56:55.005Z,7556
2016-10-26T11:57:55.016Z,7392
2016-10-26T11:58:55.056Z,7724
2016-10-26T11:59:55.051Z,7292
2016-10-26T12:00:55.092Z,6832
2016-10-26T12:01:55.094Z,6800
2016-10-26T12:02:55.122Z,6708
2016-10-26T12:03:55.142Z,6868
2016-10-26T12:04:55.161Z,6512
2016-10-26T12:05:55.190Z,6484
2016-10-26T12:06:55.200Z,7372
2016-10-26T12:07:55.202Z,7824
2016-10-26T12:08:55.246Z,7524
2016-10-26T12:09:55.242Z,7008
2016-10-26T12:10:55.282Z,6528
2016-10-26T12:11:55.282Z,6348
2016-10-26T12:12:55.333Z,6636
2016-10-26T12:13:55.345Z,5924
2016-10-26T12:14:55.366Z,5608
2016-10-26T12:15:55.420Z,5236
2016-10-26T12:16:55.729Z,4956
2016-10-26T12:17:55.448Z,4988
2016-10-26T12:18:55.451Z,4680
2016-10-26T12:19:55.459Z,4620
2016-10-26T12:20:55.463Z,4484
2016-10-26T12:21:55.494Z,4328
2016-10-26T12:22:55.522Z,4200
2016-10-26T12:23:55.543Z,4104
2016-10-26T12:24:55.539Z,3996
2016-10-26T12:25:55.588Z,3924
2016-10-26T12:26:55.655Z,3820
2016-10-26T12:27:55.634Z,3700
2016-10-26T12:28:55.647Z,3560
2016-10-26T12:29:55.643Z,3428
2016-10-26T12:30:55.658Z,3332
2016-10-26T12:31:55.668Z,3312
2016-10-26T12:32:55.690Z,3268
2016-10-26T12:33:55.699Z,3232
2016-10-26T12:34:55.727Z,3204
2016-10-26T12:35:55.744Z,3180
2016-10-26T12:36:55.756Z,3180
2016-10-26T12:37:55.793Z,3136
2016-10-26T12:38:55.816Z,3056
2016-10-26T12:39:55.823Z,2928
2016-10-26T12:40:55.840Z,2792
2016-10-26T12:41:55.858Z,2692
2016-10-26T12:42:55.898Z,2616
2016-10-26T12:43:55.892Z,2544
2016-10-26T12:44:55.918Z,2472
2016-10-26T12:45:55.944Z,2464
2016-10-26T12:46:55.940Z,2500
2016-10-26T12:47:55.946Z,2564
2016-10-26T12:48:55.963Z,2564
2016-10-26T12:49:56.006Z,2500
2016-10-26T12:50:56.000Z,2500
2016-10-26T12:51:56.035Z,2496
2016-10-26T12:52:56.062Z,2488
2016-10-26T12:53:56.080Z,2448
2016-10-26T12:54:56.079Z,2412
2016-10-26T12:55:56.123Z,2400
2016-10-26T12:56:56.141Z,2460
2016-10-26T12:57:56.151Z,2500
2016-10-26T12:58:56.188Z,2444
2016-10-26T12:59:56.301Z,2448
2016-10-26T13:00:56.198Z,2512
2016-10-26T13:01:56.216Z,2572
2016-10-26T13:02:56.248Z,2624
2016-10-26T13:03:56.243Z,2676
2016-10-26T13:04:56.275Z,2804
2016-10-26T13:05:56.289Z,3088
2016-10-26T13:06:56.304Z,3336
2016-10-26T13:07:56.327Z,3292
2016-10-26T13:08:56.350Z,3072
2016-10-26T13:09:56.363Z,3000
2016-10-26T13:10:56.384Z,3160
2016-10-26T13:11:56.392Z,3488
2016-10-26T13:12:56.416Z,3768
2016-10-26T13:13:56.439Z,3968
2016-10-26T13:14:56.451Z,3956
2016-10-26T13:15:56.468Z,3712
2016-10-26T13:16:56.522Z,3276
2016-10-26T13:17:56.484Z,2936
2016-10-26T13:18:56.510Z,2816
2016-10-26T13:19:56.523Z,2884
2016-10-26T13:20:56.572Z,2920
2016-10-26T13:21:56.582Z,2864
2016-10-26T13:22:56.592Z,2904
2016-10-26T13:23:56.608Z,3044
2016-10-26T13:24:56.638Z,3280
2016-10-26T13:25:56.643Z,3480
2016-10-26T13:26:56.665Z,3484
2016-10-26T13:27:56.668Z,3532
2016-10-26T13:28:56.699Z,3604
2016-10-26T13:29:56.719Z,3520
2016-10-26T13:30:56.735Z,3364
2016-10-26T13:31:56.785Z,3208
2016-10-26T13:32:56.777Z,3116
2016-10-26T13:33:56.791Z,3148
2016-10-26T13:34:56.812Z,3152
2016-10-26T13:35:56.819Z,3088
2016-10-26T13:36:56.833Z,2920
2016-10-26T13:37:56.864Z,2684
2016-10-26T13:38:56.864Z,2468
2016-10-26T13:39:56.890Z,2300
2016-10-26T13:40:56.935Z,2204
2016-10-26T13:41:56.928Z,2180
2016-10-26T13:42:56.987Z,2240
2016-10-26T13:43:56.969Z,2364
2016-10-26T13:44:56.976Z,2500
2016-10-26T13:45:57.006Z,2628
2016-10-26T13:46:57.013Z,2708
2016-10-26T13:47:57.034Z,2684
2016-10-26T13:48:57.098Z,2632
2016-10-26T13:49:57.079Z,2496
2016-10-26T13:50:57.143Z,2388
2016-10-26T13:51:57.096Z,2344
2016-10-26T13:52:57.146Z,2308
2016-10-26T13:53:57.150Z,2340
2016-10-26T13:54:57.216Z,2380
2016-10-26T13:55:57.188Z,2396
2016-10-26T13:56:57.271Z,2404
2016-10-26T13:57:57.233Z,2312
2016-10-26T13:58:57.321Z,2352
2016-10-26T13:59:57.243Z,2400